sensor_id;sensor_type;location;lat;lon;timestamp;P1;durP1;ratioP1;P2;durP2;ratioP2
18443;SDS011;9350;53.176;8.194;2023-03-14T00:00:38;20.75;;;3.17;;
18443;SDS011;9350;53.176;8.194;2023-03-14T00:03:05;20.00;;;3.67;;
18443;SDS011;9350;53.176;8.194;2023-03-14T00:05:33;19.02;;;3.97;;
18443;SDS011;9350;53.176;8.194;2023-03-14T00:08:00;21.20;;;3.47;;
18443;SDS011;9350;53.176;8.194;2023-03-14T00:10:28;20.20;;;3.72;;
18443;SDS011;9350;53.176;8.194;2023-03-14T00:12:54;28.10;;;4.97;;
18443;SDS011;9350;53.176;8.194;2023-03-14T00:15:21;19.48;;;3.55;;
18443;SDS011;9350;53.176;8.194;2023-03-14T00:17:48;13.38;;;3.42;;
18443;SDS011;9350;53.176;8.194;2023-03-14T00:20:14;17.27;;;3.58;;
18443;SDS011;9350;53.176;8.194;2023-03-14T00:22:41;17.33;;;3.53;;
18443;SDS011;9350;53.176;8.194;2023-03-14T00:25:09;23.63;;;3.88;;
18443;SDS011;9350;53.176;8.194;2023-03-14T00:27:38;22.92;;;4.07;;
18443;SDS011;9350;53.176;8.194;2023-03-14T00:30:05;13.07;;;3.22;;
18443;SDS011;9350;53.176;8.194;2023-03-14T00:32:33;20.20;;;3.53;;
18443;SDS011;9350;53.176;8.194;2023-03-14T00:35:00;20.75;;;3.30;;
18443;SDS011;9350;53.176;8.194;2023-03-14T00:37:28;15.68;;;3.40;;
18443;SDS011;9350;53.176;8.194;2023-03-14T00:39:54;15.90;;;2.92;;
18443;SDS011;9350;53.176;8.194;2023-03-14T00:42:22;29.33;;;3.70;;
18443;SDS011;9350;53.176;8.194;2023-03-14T00:44:50;18.02;;;3.45;;
18443;SDS011;9350;53.176;8.194;2023-03-14T00:47:17;15.60;;;3.58;;
18443;SDS011;9350;53.176;8.194;2023-03-14T00:49:43;21.67;;;3.70;;
18443;SDS011;9350;53.176;8.194;2023-03-14T00:52:10;13.75;;;3.28;;
18443;SDS011;9350;53.176;8.194;2023-03-14T00:54:37;19.33;;;3.45;;
18443;SDS011;9350;53.176;8.194;2023-03-14T00:57:04;22.30;;;3.72;;
18443;SDS011;9350;53.176;8.194;2023-03-14T00:59:30;17.52;;;3.72;;
18443;SDS011;9350;53.176;8.194;2023-03-14T01:01:58;15.38;;;3.13;;
18443;SDS011;9350;53.176;8.194;2023-03-14T01:04:25;14.43;;;3.30;;
18443;SDS011;9350;53.176;8.194;2023-03-14T01:06:52;10.00;;;3.05;;
18443;SDS011;9350;53.176;8.194;2023-03-14T01:09:18;12.25;;;3.05;;
18443;SDS011;9350;53.176;8.194;2023-03-14T01:11:45;10.77;;;2.95;;
18443;SDS011;9350;53.176;8.194;2023-03-14T01:14:12;12.68;;;3.00;;
18443;SDS011;9350;53.176;8.194;2023-03-14T01:16:39;13.05;;;3.00;;
18443;SDS011;9350;53.176;8.194;2023-03-14T01:19:07;7.25;;;2.83;;
18443;SDS011;9350;53.176;8.194;2023-03-14T01:21:35;9.00;;;2.83;;
18443;SDS011;9350;53.176;8.194;2023-03-14T01:24:03;11.48;;;3.10;;
18443;SDS011;9350;53.176;8.194;2023-03-14T01:26:32;17.98;;;3.45;;
18443;SDS011;9350;53.176;8.194;2023-03-14T01:29:00;8.00;;;3.30;;
18443;SDS011;9350;53.176;8.194;2023-03-14T01:31:28;12.27;;;3.28;;
18443;SDS011;9350;53.176;8.194;2023-03-14T01:33:55;6.70;;;3.17;;
18443;SDS011;9350;53.176;8.194;2023-03-14T01:36:23;7.68;;;2.72;;
18443;SDS011;9350;53.176;8.194;2023-03-14T01:38:50;7.53;;;3.50;;
18443;SDS011;9350;53.176;8.194;2023-03-14T01:41:18;16.58;;;3.40;;
18443;SDS011;9350;53.176;8.194;2023-03-14T01:43:46;8.30;;;3.20;;
18443;SDS011;9350;53.176;8.194;2023-03-14T01:46:17;12.45;;;3.65;;
18443;SDS011;9350;53.176;8.194;2023-03-14T01:49:01;8.27;;;3.08;;
18443;SDS011;9350;53.176;8.194;2023-03-14T01:51:35;9.40;;;3.30;;
18443;SDS011;9350;53.176;8.194;2023-03-14T01:54:07;11.63;;;3.60;;
18443;SDS011;9350;53.176;8.194;2023-03-14T01:56:38;11.48;;;3.42;;
18443;SDS011;9350;53.176;8.194;2023-03-14T01:59:07;12.18;;;3.75;;
18443;SDS011;9350;53.176;8.194;2023-03-14T02:01:36;8.88;;;3.13;;
18443;SDS011;9350;53.176;8.194;2023-03-14T02:04:07;10.32;;;3.20;;
18443;SDS011;9350;53.176;8.194;2023-03-14T02:06:37;7.63;;;3.40;;
18443;SDS011;9350;53.176;8.194;2023-03-14T02:09:10;8.02;;;3.30;;
18443;SDS011;9350;53.176;8.194;2023-03-14T02:11:37;8.75;;;3.35;;
18443;SDS011;9350;53.176;8.194;2023-03-14T02:14:04;5.55;;;2.90;;
18443;SDS011;9350;53.176;8.194;2023-03-14T02:16:33;8.70;;;3.05;;
18443;SDS011;9350;53.176;8.194;2023-03-14T02:19:01;10.45;;;3.45;;
18443;SDS011;9350;53.176;8.194;2023-03-14T02:21:31;10.05;;;3.10;;
18443;SDS011;9350;53.176;8.194;2023-03-14T02:24:09;7.25;;;3.00;;
18443;SDS011;9350;53.176;8.194;2023-03-14T02:26:43;7.10;;;3.40;;
18443;SDS011;9350;53.176;8.194;2023-03-14T02:29:39;9.68;;;3.28;;
18443;SDS011;9350;53.176;8.194;2023-03-14T02:32:11;10.10;;;3.55;;
18443;SDS011;9350;53.176;8.194;2023-03-14T02:34:40;7.05;;;2.83;;
18443;SDS011;9350;53.176;8.194;2023-03-14T02:37:09;7.03;;;2.85;;
18443;SDS011;9350;53.176;8.194;2023-03-14T02:39:38;6.03;;;1.83;;
18443;SDS011;9350;53.176;8.194;2023-03-14T02:42:06;3.22;;;1.63;;
18443;SDS011;9350;53.176;8.194;2023-03-14T02:44:32;3.85;;;1.40;;
18443;SDS011;9350;53.176;8.194;2023-03-14T02:47:01;4.18;;;1.23;;
18443;SDS011;9350;53.176;8.194;2023-03-14T02:49:30;5.82;;;1.40;;
18443;SDS011;9350;53.176;8.194;2023-03-14T02:51:59;1.77;;;1.10;;
18443;SDS011;9350;53.176;8.194;2023-03-14T02:54:25;5.50;;;1.33;;
18443;SDS011;9350;53.176;8.194;2023-03-14T02:56:52;5.22;;;1.40;;
18443;SDS011;9350;53.176;8.194;2023-03-14T02:59:19;3.63;;;1.30;;
18443;SDS011;9350;53.176;8.194;2023-03-14T03:01:45;3.03;;;1.38;;
18443;SDS011;9350;53.176;8.194;2023-03-14T03:04:13;6.75;;;1.50;;
18443;SDS011;9350;53.176;8.194;2023-03-14T03:06:40;4.68;;;1.23;;
18443;SDS011;9350;53.176;8.194;2023-03-14T03:09:07;4.63;;;1.50;;
18443;SDS011;9350;53.176;8.194;2023-03-14T03:11:34;2.75;;;1.48;;
18443;SDS011;9350;53.176;8.194;2023-03-14T03:14:01;4.97;;;1.55;;
18443;SDS011;9350;53.176;8.194;2023-03-14T03:16:27;5.53;;;1.52;;
18443;SDS011;9350;53.176;8.194;2023-03-14T03:18:54;4.88;;;1.35;;
18443;SDS011;9350;53.176;8.194;2023-03-14T03:21:22;6.43;;;1.65;;
18443;SDS011;9350;53.176;8.194;2023-03-14T03:23:49;5.70;;;1.30;;
18443;SDS011;9350;53.176;8.194;2023-03-14T03:26:16;5.28;;;1.83;;
18443;SDS011;9350;53.176;8.194;2023-03-14T03:28:43;6.93;;;1.60;;
18443;SDS011;9350;53.176;8.194;2023-03-14T03:31:10;6.03;;;1.67;;
18443;SDS011;9350;53.176;8.194;2023-03-14T03:33:38;6.22;;;1.92;;
18443;SDS011;9350;53.176;8.194;2023-03-14T03:36:05;5.88;;;1.73;;
18443;SDS011;9350;53.176;8.194;2023-03-14T03:38:34;6.80;;;2.10;;
18443;SDS011;9350;53.176;8.194;2023-03-14T03:41:02;3.40;;;1.80;;
18443;SDS011;9350;53.176;8.194;2023-03-14T03:43:29;5.70;;;1.83;;
18443;SDS011;9350;53.176;8.194;2023-03-14T03:45:56;7.03;;;1.80;;
18443;SDS011;9350;53.176;8.194;2023-03-14T03:48:23;3.70;;;1.85;;
18443;SDS011;9350;53.176;8.194;2023-03-14T03:50:50;7.45;;;1.95;;
18443;SDS011;9350;53.176;8.194;2023-03-14T03:53:16;7.18;;;2.00;;
18443;SDS011;9350;53.176;8.194;2023-03-14T03:55:44;3.58;;;1.70;;
18443;SDS011;9350;53.176;8.194;2023-03-14T03:58:11;7.00;;;2.08;;
18443;SDS011;9350;53.176;8.194;2023-03-14T04:00:38;3.95;;;1.58;;
18443;SDS011;9350;53.176;8.194;2023-03-14T04:03:04;5.68;;;1.85;;
18443;SDS011;9350;53.176;8.194;2023-03-14T04:05:31;9.32;;;1.98;;
18443;SDS011;9350;53.176;8.194;2023-03-14T04:07:59;5.68;;;1.83;;
18443;SDS011;9350;53.176;8.194;2023-03-14T04:10:26;6.85;;;2.10;;
18443;SDS011;9350;53.176;8.194;2023-03-14T04:12:54;6.38;;;2.15;;
18443;SDS011;9350;53.176;8.194;2023-03-14T04:15:21;4.13;;;2.08;;
18443;SDS011;9350;53.176;8.194;2023-03-14T04:17:47;7.80;;;2.50;;
18443;SDS011;9350;53.176;8.194;2023-03-14T04:20:14;6.25;;;2.72;;
18443;SDS011;9350;53.176;8.194;2023-03-14T04:22:41;9.05;;;2.50;;
18443;SDS011;9350;53.176;8.194;2023-03-14T04:25:08;4.32;;;2.40;;
18443;SDS011;9350;53.176;8.194;2023-03-14T04:27:35;5.78;;;2.60;;
18443;SDS011;9350;53.176;8.194;2023-03-14T04:30:03;6.03;;;2.75;;
18443;SDS011;9350;53.176;8.194;2023-03-14T04:32:30;9.90;;;2.92;;
18443;SDS011;9350;53.176;8.194;2023-03-14T04:34:57;7.85;;;2.45;;
18443;SDS011;9350;53.176;8.194;2023-03-14T04:37:23;7.45;;;2.53;;
18443;SDS011;9350;53.176;8.194;2023-03-14T04:39:50;5.78;;;2.53;;
18443;SDS011;9350;53.176;8.194;2023-03-14T04:42:17;8.68;;;2.10;;
18443;SDS011;9350;53.176;8.194;2023-03-14T04:44:43;4.05;;;2.15;;
18443;SDS011;9350;53.176;8.194;2023-03-14T04:47:13;2.80;;;1.73;;
18443;SDS011;9350;53.176;8.194;2023-03-14T04:49:39;4.00;;;1.83;;
18443;SDS011;9350;53.176;8.194;2023-03-14T04:52:06;2.03;;;1.60;;
18443;SDS011;9350;53.176;8.194;2023-03-14T04:54:33;7.75;;;2.38;;
18443;SDS011;9350;53.176;8.194;2023-03-14T04:56:59;3.35;;;1.63;;
18443;SDS011;9350;53.176;8.194;2023-03-14T04:59:26;5.47;;;1.88;;
18443;SDS011;9350;53.176;8.194;2023-03-14T05:01:53;7.07;;;2.08;;
18443;SDS011;9350;53.176;8.194;2023-03-14T05:04:21;7.80;;;1.92;;
18443;SDS011;9350;53.176;8.194;2023-03-14T05:06:47;8.70;;;1.83;;
18443;SDS011;9350;53.176;8.194;2023-03-14T05:09:14;5.65;;;1.83;;
18443;SDS011;9350;53.176;8.194;2023-03-14T05:11:41;7.35;;;1.80;;
18443;SDS011;9350;53.176;8.194;2023-03-14T05:14:07;9.68;;;2.13;;
18443;SDS011;9350;53.176;8.194;2023-03-14T05:16:34;5.55;;;1.88;;
18443;SDS011;9350;53.176;8.194;2023-03-14T05:19:01;10.27;;;3.03;;
18443;SDS011;9350;53.176;8.194;2023-03-14T05:21:29;5.53;;;1.83;;
18443;SDS011;9350;53.176;8.194;2023-03-14T05:23:56;6.35;;;2.00;;
18443;SDS011;9350;53.176;8.194;2023-03-14T05:26:22;6.47;;;2.40;;
18443;SDS011;9350;53.176;8.194;2023-03-14T05:28:49;6.53;;;2.05;;
18443;SDS011;9350;53.176;8.194;2023-03-14T05:31:16;12.57;;;2.35;;
18443;SDS011;9350;53.176;8.194;2023-03-14T05:33:43;9.00;;;2.45;;
18443;SDS011;9350;53.176;8.194;2023-03-14T05:36:09;4.90;;;2.33;;
18443;SDS011;9350;53.176;8.194;2023-03-14T05:38:37;6.28;;;2.05;;
18443;SDS011;9350;53.176;8.194;2023-03-14T05:41:04;6.68;;;2.03;;
18443;SDS011;9350;53.176;8.194;2023-03-14T05:43:31;7.95;;;2.35;;
18443;SDS011;9350;53.176;8.194;2023-03-14T05:45:58;9.63;;;2.10;;
18443;SDS011;9350;53.176;8.194;2023-03-14T05:48:25;5.00;;;2.05;;
18443;SDS011;9350;53.176;8.194;2023-03-14T05:50:54;8.00;;;2.35;;
18443;SDS011;9350;53.176;8.194;2023-03-14T05:53:21;7.68;;;2.20;;
18443;SDS011;9350;53.176;8.194;2023-03-14T05:55:51;8.60;;;3.03;;
18443;SDS011;9350;53.176;8.194;2023-03-14T05:58:18;6.15;;;2.70;;
18443;SDS011;9350;53.176;8.194;2023-03-14T06:00:45;3.65;;;2.20;;
18443;SDS011;9350;53.176;8.194;2023-03-14T06:03:12;5.25;;;1.90;;
18443;SDS011;9350;53.176;8.194;2023-03-14T06:05:39;4.47;;;1.90;;
18443;SDS011;9350;53.176;8.194;2023-03-14T06:08:06;5.38;;;2.28;;
18443;SDS011;9350;53.176;8.194;2023-03-14T06:10:34;5.45;;;2.10;;
18443;SDS011;9350;53.176;8.194;2023-03-14T06:13:02;6.68;;;2.22;;
18443;SDS011;9350;53.176;8.194;2023-03-14T06:15:29;11.05;;;2.20;;
18443;SDS011;9350;53.176;8.194;2023-03-14T06:17:57;7.35;;;2.30;;
18443;SDS011;9350;53.176;8.194;2023-03-14T06:20:24;10.98;;;2.90;;
18443;SDS011;9350;53.176;8.194;2023-03-14T06:22:51;6.45;;;2.40;;
18443;SDS011;9350;53.176;8.194;2023-03-14T06:25:18;5.72;;;2.10;;
18443;SDS011;9350;53.176;8.194;2023-03-14T06:27:45;9.93;;;2.40;;
18443;SDS011;9350;53.176;8.194;2023-03-14T06:30:13;5.20;;;1.92;;
18443;SDS011;9350;53.176;8.194;2023-03-14T06:32:40;5.32;;;2.38;;
18443;SDS011;9350;53.176;8.194;2023-03-14T06:35:07;3.95;;;2.20;;
18443;SDS011;9350;53.176;8.194;2023-03-14T06:37:34;7.88;;;2.22;;
18443;SDS011;9350;53.176;8.194;2023-03-14T06:40:01;7.28;;;2.83;;
18443;SDS011;9350;53.176;8.194;2023-03-14T06:42:27;9.18;;;2.60;;
18443;SDS011;9350;53.176;8.194;2023-03-14T06:44:54;6.25;;;2.72;;
18443;SDS011;9350;53.176;8.194;2023-03-14T06:47:22;5.97;;;2.50;;
18443;SDS011;9350;53.176;8.194;2023-03-14T06:49:49;4.93;;;2.45;;
18443;SDS011;9350;53.176;8.194;2023-03-14T06:52:16;11.60;;;2.60;;
18443;SDS011;9350;53.176;8.194;2023-03-14T06:54:42;11.98;;;2.80;;
18443;SDS011;9350;53.176;8.194;2023-03-14T06:57:09;9.15;;;3.15;;
18443;SDS011;9350;53.176;8.194;2023-03-14T06:59:36;7.80;;;2.60;;
18443;SDS011;9350;53.176;8.194;2023-03-14T07:02:02;8.93;;;2.78;;
18443;SDS011;9350;53.176;8.194;2023-03-14T07:04:30;8.75;;;2.60;;
18443;SDS011;9350;53.176;8.194;2023-03-14T07:06:57;7.20;;;2.65;;
18443;SDS011;9350;53.176;8.194;2023-03-14T07:09:24;6.85;;;2.20;;
18443;SDS011;9350;53.176;8.194;2023-03-14T07:11:50;6.50;;;2.80;;
18443;SDS011;9350;53.176;8.194;2023-03-14T07:14:17;7.85;;;2.42;;
18443;SDS011;9350;53.176;8.194;2023-03-14T07:16:44;10.15;;;2.90;;
18443;SDS011;9350;53.176;8.194;2023-03-14T07:19:11;8.18;;;2.38;;
18443;SDS011;9350;53.176;8.194;2023-03-14T07:21:39;10.80;;;2.70;;
18443;SDS011;9350;53.176;8.194;2023-03-14T07:24:05;8.25;;;2.33;;
18443;SDS011;9350;53.176;8.194;2023-03-14T07:26:32;13.35;;;2.55;;
18443;SDS011;9350;53.176;8.194;2023-03-14T07:28:59;6.70;;;2.03;;
18443;SDS011;9350;53.176;8.194;2023-03-14T07:31:28;9.73;;;2.10;;
18443;SDS011;9350;53.176;8.194;2023-03-14T07:33:55;7.70;;;2.33;;
18443;SDS011;9350;53.176;8.194;2023-03-14T07:36:22;8.57;;;2.15;;
18443;SDS011;9350;53.176;8.194;2023-03-14T07:38:50;5.70;;;2.10;;
18443;SDS011;9350;53.176;8.194;2023-03-14T07:41:17;9.65;;;2.40;;
18443;SDS011;9350;53.176;8.194;2023-03-14T07:43:45;6.00;;;2.22;;
18443;SDS011;9350;53.176;8.194;2023-03-14T07:46:12;10.13;;;2.40;;
18443;SDS011;9350;53.176;8.194;2023-03-14T07:48:39;10.68;;;2.63;;
18443;SDS011;9350;53.176;8.194;2023-03-14T07:51:06;10.15;;;2.60;;
18443;SDS011;9350;53.176;8.194;2023-03-14T07:53:33;10.07;;;2.47;;
18443;SDS011;9350;53.176;8.194;2023-03-14T07:56:01;10.05;;;2.65;;
18443;SDS011;9350;53.176;8.194;2023-03-14T07:58:28;8.18;;;2.80;;
18443;SDS011;9350;53.176;8.194;2023-03-14T08:00:55;8.95;;;2.30;;
18443;SDS011;9350;53.176;8.194;2023-03-14T08:03:21;13.20;;;3.25;;
18443;SDS011;9350;53.176;8.194;2023-03-14T08:05:48;11.32;;;2.33;;
18443;SDS011;9350;53.176;8.194;2023-03-14T08:08:16;9.05;;;3.28;;
18443;SDS011;9350;53.176;8.194;2023-03-14T08:10:43;8.23;;;3.08;;
18443;SDS011;9350;53.176;8.194;2023-03-14T08:13:12;11.00;;;2.50;;
18443;SDS011;9350;53.176;8.194;2023-03-14T08:15:39;8.35;;;2.38;;
18443;SDS011;9350;53.176;8.194;2023-03-14T08:18:06;8.57;;;2.47;;
18443;SDS011;9350;53.176;8.194;2023-03-14T08:20:32;10.82;;;2.42;;
18443;SDS011;9350;53.176;8.194;2023-03-14T08:23:00;6.00;;;2.45;;
18443;SDS011;9350;53.176;8.194;2023-03-14T08:25:27;8.60;;;2.53;;
18443;SDS011;9350;53.176;8.194;2023-03-14T08:27:54;5.75;;;2.10;;
18443;SDS011;9350;53.176;8.194;2023-03-14T08:30:23;5.45;;;1.83;;
18443;SDS011;9350;53.176;8.194;2023-03-14T08:32:50;3.47;;;1.30;;
18443;SDS011;9350;53.176;8.194;2023-03-14T08:35:17;2.00;;;1.00;;
18443;SDS011;9350;53.176;8.194;2023-03-14T08:37:44;1.95;;;0.90;;
18443;SDS011;9350;53.176;8.194;2023-03-14T08:40:11;3.33;;;0.90;;
18443;SDS011;9350;53.176;8.194;2023-03-14T08:42:38;1.73;;;0.88;;
18443;SDS011;9350;53.176;8.194;2023-03-14T08:45:06;3.20;;;0.90;;
18443;SDS011;9350;53.176;8.194;2023-03-14T08:47:35;1.95;;;0.90;;
18443;SDS011;9350;53.176;8.194;2023-03-14T08:50:02;4.80;;;1.02;;
18443;SDS011;9350;53.176;8.194;2023-03-14T08:52:30;2.70;;;0.93;;
18443;SDS011;9350;53.176;8.194;2023-03-14T08:54:56;4.50;;;0.77;;
18443;SDS011;9350;53.176;8.194;2023-03-14T08:57:23;3.53;;;0.63;;
18443;SDS011;9350;53.176;8.194;2023-03-14T08:59:52;1.25;;;0.73;;
18443;SDS011;9350;53.176;8.194;2023-03-14T09:02:19;1.25;;;0.70;;
18443;SDS011;9350;53.176;8.194;2023-03-14T09:04:47;1.38;;;0.60;;
18443;SDS011;9350;53.176;8.194;2023-03-14T09:07:13;1.38;;;0.50;;
18443;SDS011;9350;53.176;8.194;2023-03-14T09:09:40;3.35;;;0.77;;
18443;SDS011;9350;53.176;8.194;2023-03-14T09:12:07;1.00;;;1.00;;
18443;SDS011;9350;53.176;8.194;2023-03-14T09:14:34;0.40;;;0.40;;
18443;SDS011;9350;53.176;8.194;2023-03-14T09:17:00;0.45;;;0.45;;
18443;SDS011;9350;53.176;8.194;2023-03-14T09:19:28;0.40;;;0.40;;
18443;SDS011;9350;53.176;8.194;2023-03-14T09:21:56;0.40;;;0.40;;
18443;SDS011;9350;53.176;8.194;2023-03-14T09:24:23;1.17;;;0.50;;
18443;SDS011;9350;53.176;8.194;2023-03-14T09:26:49;1.25;;;0.60;;
18443;SDS011;9350;53.176;8.194;2023-03-14T09:29:16;2.35;;;0.65;;
18443;SDS011;9350;53.176;8.194;2023-03-14T09:31:43;1.17;;;0.43;;
18443;SDS011;9350;53.176;8.194;2023-03-14T09:34:09;0.60;;;0.60;;
18443;SDS011;9350;53.176;8.194;2023-03-14T09:36:36;0.85;;;0.40;;
18443;SDS011;9350;53.176;8.194;2023-03-14T09:39:05;0.55;;;0.50;;
18443;SDS011;9350;53.176;8.194;2023-03-14T09:41:33;3.00;;;0.50;;
18443;SDS011;9350;53.176;8.194;2023-03-14T09:44:03;1.10;;;0.50;;
18443;SDS011;9350;53.176;8.194;2023-03-14T09:46:31;1.13;;;0.50;;
18443;SDS011;9350;53.176;8.194;2023-03-14T09:49:01;0.52;;;0.52;;
18443;SDS011;9350;53.176;8.194;2023-03-14T09:51:28;0.40;;;0.40;;
18443;SDS011;9350;53.176;8.194;2023-03-14T09:53:56;0.60;;;0.60;;
18443;SDS011;9350;53.176;8.194;2023-03-14T09:56:25;1.02;;;0.50;;
18443;SDS011;9350;53.176;8.194;2023-03-14T09:58:54;0.65;;;0.65;;
18443;SDS011;9350;53.176;8.194;2023-03-14T10:01:24;0.50;;;0.50;;
18443;SDS011;9350;53.176;8.194;2023-03-14T10:03:56;0.50;;;0.50;;
18443;SDS011;9350;53.176;8.194;2023-03-14T10:06:27;2.63;;;0.70;;
18443;SDS011;9350;53.176;8.194;2023-03-14T10:08:56;1.45;;;0.70;;
18443;SDS011;9350;53.176;8.194;2023-03-14T10:11:23;1.25;;;0.68;;
18443;SDS011;9350;53.176;8.194;2023-03-14T10:14:02;0.70;;;0.70;;
18443;SDS011;9350;53.176;8.194;2023-03-14T10:16:31;1.88;;;0.98;;
18443;SDS011;9350;53.176;8.194;2023-03-14T10:19:02;1.15;;;0.80;;
18443;SDS011;9350;53.176;8.194;2023-03-14T10:21:35;0.98;;;0.65;;
18443;SDS011;9350;53.176;8.194;2023-03-14T10:24:09;2.85;;;0.80;;
18443;SDS011;9350;53.176;8.194;2023-03-14T10:26:45;4.10;;;0.77;;
18443;SDS011;9350;53.176;8.194;2023-03-14T10:29:14;1.52;;;0.90;;
18443;SDS011;9350;53.176;8.194;2023-03-14T10:31:48;4.70;;;1.00;;
18443;SDS011;9350;53.176;8.194;2023-03-14T10:34:20;8.10;;;1.05;;
18443;SDS011;9350;53.176;8.194;2023-03-14T10:36:51;4.80;;;1.33;;
18443;SDS011;9350;53.176;8.194;2023-03-14T10:39:30;3.08;;;1.00;;
18443;SDS011;9350;53.176;8.194;2023-03-14T10:42:12;8.90;;;1.60;;
18443;SDS011;9350;53.176;8.194;2023-03-14T10:44:44;6.85;;;1.20;;
18443;SDS011;9350;53.176;8.194;2023-03-14T10:47:15;6.05;;;1.30;;
18443;SDS011;9350;53.176;8.194;2023-03-14T10:49:45;5.72;;;1.42;;
18443;SDS011;9350;53.176;8.194;2023-03-14T10:52:13;6.88;;;1.40;;
18443;SDS011;9350;53.176;8.194;2023-03-14T10:54:46;7.03;;;1.40;;
18443;SDS011;9350;53.176;8.194;2023-03-14T10:57:16;10.00;;;1.70;;
18443;SDS011;9350;53.176;8.194;2023-03-14T10:59:45;6.22;;;1.80;;
18443;SDS011;9350;53.176;8.194;2023-03-14T11:02:21;10.25;;;1.60;;
18443;SDS011;9350;53.176;8.194;2023-03-14T11:05:09;13.52;;;1.90;;
18443;SDS011;9350;53.176;8.194;2023-03-14T11:07:45;10.60;;;1.45;;
18443;SDS011;9350;53.176;8.194;2023-03-14T11:10:14;11.30;;;1.92;;
18443;SDS011;9350;53.176;8.194;2023-03-14T11:12:51;9.82;;;2.10;;
18443;SDS011;9350;53.176;8.194;2023-03-14T11:15:27;16.45;;;2.95;;
18443;SDS011;9350;53.176;8.194;2023-03-14T11:18:13;10.25;;;2.28;;
18443;SDS011;9350;53.176;8.194;2023-03-14T11:20:51;14.60;;;2.28;;
18443;SDS011;9350;53.176;8.194;2023-03-14T11:23:22;14.23;;;2.25;;
18443;SDS011;9350;53.176;8.194;2023-03-14T11:25:55;15.95;;;2.40;;
18443;SDS011;9350;53.176;8.194;2023-03-14T11:28:29;9.95;;;2.33;;
18443;SDS011;9350;53.176;8.194;2023-03-14T11:31:03;18.65;;;2.15;;
18443;SDS011;9350;53.176;8.194;2023-03-14T11:33:37;11.20;;;2.00;;
18443;SDS011;9350;53.176;8.194;2023-03-14T11:36:06;14.65;;;2.20;;
18443;SDS011;9350;53.176;8.194;2023-03-14T11:38:34;16.98;;;2.83;;
18443;SDS011;9350;53.176;8.194;2023-03-14T11:41:08;12.68;;;2.20;;
18443;SDS011;9350;53.176;8.194;2023-03-14T11:43:41;22.40;;;3.15;;
18443;SDS011;9350;53.176;8.194;2023-03-14T11:46:14;16.52;;;2.38;;
18443;SDS011;9350;53.176;8.194;2023-03-14T11:48:48;24.52;;;2.50;;
18443;SDS011;9350;53.176;8.194;2023-03-14T11:51:25;13.88;;;2.85;;
18443;SDS011;9350;53.176;8.194;2023-03-14T11:53:57;25.73;;;3.10;;
18443;SDS011;9350;53.176;8.194;2023-03-14T11:56:29;14.43;;;2.50;;
18443;SDS011;9350;53.176;8.194;2023-03-14T11:59:03;9.82;;;2.58;;
18443;SDS011;9350;53.176;8.194;2023-03-14T12:01:34;13.90;;;2.10;;
18443;SDS011;9350;53.176;8.194;2023-03-14T12:04:13;13.30;;;2.28;;
18443;SDS011;9350;53.176;8.194;2023-03-14T12:06:47;19.83;;;2.28;;
18443;SDS011;9350;53.176;8.194;2023-03-14T12:09:15;14.65;;;3.38;;
18443;SDS011;9350;53.176;8.194;2023-03-14T12:11:43;15.30;;;2.28;;
18443;SDS011;9350;53.176;8.194;2023-03-14T12:14:22;16.50;;;2.30;;
18443;SDS011;9350;53.176;8.194;2023-03-14T12:16:52;11.23;;;1.98;;
18443;SDS011;9350;53.176;8.194;2023-03-14T12:19:26;10.25;;;1.83;;
18443;SDS011;9350;53.176;8.194;2023-03-14T12:21:56;9.45;;;2.33;;
18443;SDS011;9350;53.176;8.194;2023-03-14T12:24:27;10.73;;;2.58;;
18443;SDS011;9350;53.176;8.194;2023-03-14T12:26:57;12.50;;;2.03;;
18443;SDS011;9350;53.176;8.194;2023-03-14T12:29:26;15.98;;;2.97;;
18443;SDS011;9350;53.176;8.194;2023-03-14T12:32:06;7.00;;;1.95;;
18443;SDS011;9350;53.176;8.194;2023-03-14T12:34:38;6.20;;;1.50;;
18443;SDS011;9350;53.176;8.194;2023-03-14T12:40:00;7.55;;;1.50;;
18443;SDS011;9350;53.176;8.194;2023-03-14T12:42:38;9.98;;;2.33;;
18443;SDS011;9350;53.176;8.194;2023-03-14T12:45:21;3.88;;;1.48;;
18443;SDS011;9350;53.176;8.194;2023-03-14T12:47:51;7.65;;;1.73;;
18443;SDS011;9350;53.176;8.194;2023-03-14T12:50:36;6.53;;;1.40;;
18443;SDS011;9350;53.176;8.194;2023-03-14T12:53:15;7.63;;;1.38;;
18443;SDS011;9350;53.176;8.194;2023-03-14T12:56:06;6.15;;;1.48;;
18443;SDS011;9350;53.176;8.194;2023-03-14T12:58:43;7.78;;;1.67;;
18443;SDS011;9350;53.176;8.194;2023-03-14T13:01:17;9.40;;;1.75;;
18443;SDS011;9350;53.176;8.194;2023-03-14T13:03:46;8.85;;;1.50;;
18443;SDS011;9350;53.176;8.194;2023-03-14T13:09:34;10.05;;;1.30;;
18443;SDS011;9350;53.176;8.194;2023-03-14T13:12:17;6.85;;;1.33;;
18443;SDS011;9350;53.176;8.194;2023-03-14T13:14:45;7.28;;;1.95;;
18443;SDS011;9350;53.176;8.194;2023-03-14T13:17:15;5.07;;;1.45;;
18443;SDS011;9350;53.176;8.194;2023-03-14T13:19:51;8.40;;;1.45;;
18443;SDS011;9350;53.176;8.194;2023-03-14T13:22:22;12.10;;;2.08;;
18443;SDS011;9350;53.176;8.194;2023-03-14T13:24:58;8.45;;;2.00;;
18443;SDS011;9350;53.176;8.194;2023-03-14T13:27:26;13.05;;;2.15;;
18443;SDS011;9350;53.176;8.194;2023-03-14T13:29:55;6.60;;;1.60;;
18443;SDS011;9350;53.176;8.194;2023-03-14T13:32:25;9.68;;;1.88;;
18443;SDS011;9350;53.176;8.194;2023-03-14T13:34:55;11.80;;;1.77;;
18443;SDS011;9350;53.176;8.194;2023-03-14T13:37:23;9.40;;;2.08;;
18443;SDS011;9350;53.176;8.194;2023-03-14T13:39:51;9.18;;;1.65;;
18443;SDS011;9350;53.176;8.194;2023-03-14T13:42:20;9.07;;;1.85;;
18443;SDS011;9350;53.176;8.194;2023-03-14T13:44:47;8.57;;;1.73;;
18443;SDS011;9350;53.176;8.194;2023-03-14T13:47:14;9.63;;;1.55;;
18443;SDS011;9350;53.176;8.194;2023-03-14T13:49:44;9.25;;;1.85;;
18443;SDS011;9350;53.176;8.194;2023-03-14T13:52:25;5.40;;;1.85;;
18443;SDS011;9350;53.176;8.194;2023-03-14T13:54:55;5.75;;;1.63;;
18443;SDS011;9350;53.176;8.194;2023-03-14T13:57:22;5.40;;;1.38;;
18443;SDS011;9350;53.176;8.194;2023-03-14T13:59:59;8.50;;;1.40;;
18443;SDS011;9350;53.176;8.194;2023-03-14T14:02:30;9.70;;;1.63;;
18443;SDS011;9350;53.176;8.194;2023-03-14T14:05:00;10.05;;;1.80;;
18443;SDS011;9350;53.176;8.194;2023-03-14T14:07:27;9.35;;;1.40;;
18443;SDS011;9350;53.176;8.194;2023-03-14T14:09:54;13.52;;;2.00;;
18443;SDS011;9350;53.176;8.194;2023-03-14T14:12:22;11.43;;;1.60;;
18443;SDS011;9350;53.176;8.194;2023-03-14T14:14:53;6.43;;;1.42;;
18443;SDS011;9350;53.176;8.194;2023-03-14T14:17:24;8.32;;;1.67;;
18443;SDS011;9350;53.176;8.194;2023-03-14T14:19:55;19.30;;;2.45;;
18443;SDS011;9350;53.176;8.194;2023-03-14T14:22:23;7.32;;;1.50;;
18443;SDS011;9350;53.176;8.194;2023-03-14T14:24:51;5.60;;;1.58;;
18443;SDS011;9350;53.176;8.194;2023-03-14T14:27:19;10.90;;;2.08;;
18443;SDS011;9350;53.176;8.194;2023-03-14T14:29:58;11.68;;;1.40;;
18443;SDS011;9350;53.176;8.194;2023-03-14T14:32:26;5.65;;;1.17;;
18443;SDS011;9350;53.176;8.194;2023-03-14T14:35:01;4.53;;;1.42;;
18443;SDS011;9350;53.176;8.194;2023-03-14T14:37:30;5.85;;;1.45;;
18443;SDS011;9350;53.176;8.194;2023-03-14T14:39:59;2.33;;;1.30;;
18443;SDS011;9350;53.176;8.194;2023-03-14T14:42:32;6.07;;;1.10;;
18443;SDS011;9350;53.176;8.194;2023-03-14T14:44:59;7.20;;;1.63;;
18443;SDS011;9350;53.176;8.194;2023-03-14T14:47:28;10.60;;;1.63;;
18443;SDS011;9350;53.176;8.194;2023-03-14T14:49:59;5.93;;;1.20;;
18443;SDS011;9350;53.176;8.194;2023-03-14T14:52:36;9.32;;;1.70;;
18443;SDS011;9350;53.176;8.194;2023-03-14T14:55:12;4.00;;;1.40;;
18443;SDS011;9350;53.176;8.194;2023-03-14T14:57:47;5.55;;;1.75;;
18443;SDS011;9350;53.176;8.194;2023-03-14T15:00:17;8.20;;;1.60;;
18443;SDS011;9350;53.176;8.194;2023-03-14T15:02:46;9.50;;;1.70;;
18443;SDS011;9350;53.176;8.194;2023-03-14T15:05:17;8.13;;;2.00;;
18443;SDS011;9350;53.176;8.194;2023-03-14T15:07:47;11.10;;;1.52;;
18443;SDS011;9350;53.176;8.194;2023-03-14T15:10:14;5.30;;;1.35;;
18443;SDS011;9350;53.176;8.194;2023-03-14T15:12:43;7.35;;;1.40;;
18443;SDS011;9350;53.176;8.194;2023-03-14T15:15:10;10.55;;;1.42;;